Time;durP1;ratioP1;P1;durP2;ratioP2;P2;SDS_P1;SDS_P2;PMS_P1;PMS_P2;Temp;Humidity;BMP_temperature;BMP_pressure;BME280_temperature;BME280_humidity;BME280_pressure;Samples;Min_cycle;Max_cycle;Signal;HPM_P1;HPM_P2
2021/06/28 00:00:32;;;;;;;3.10;2.57;;;;;;;;;;5031650;28;20418;-67
2021/06/28 00:02:59;;;;;;;3.57;2.63;;;;;;;;;;5031442;28;20974;-67
2021/06/28 00:05:25;;;;;;;3.80;2.57;;;;;;;;;;5032002;28;20435;-67
2021/06/28 00:07:52;;;;;;;3.87;2.80;;;;;;;;;;5032971;28;20461;-67
2021/06/28 00:10:19;;;;;;;4.37;2.80;;;;;;;;;;5018092;28;20428;-67
2021/06/28 00:12:46;;;;;;;3.40;2.27;;;;;;;;;;5013373;28;20446;-67
2021/06/28 00:15:13;;;;;;;4.93;2.43;;;;;;;;;;5013167;28;20434;-67
2021/06/28 00:17:40;;;;;;;3.40;2.50;;;;;;;;;;5013310;28;20893;-67
2021/06/28 00:20:07;;;;;;;3.60;2.80;;;;;;;;;;5013391;28;20539;-67
2021/06/28 00:22:34;;;;;;;4.50;2.30;;;;;;;;;;5013385;28;20459;-67
2021/06/28 00:25:00;;;;;;;4.37;2.60;;;;;;;;;;5024017;28;20418;-67
2021/06/28 00:27:26;;;;;;;4.83;2.53;;;;;;;;;;5032844;28;20494;-67
2021/06/28 00:29:52;;;;;;;4.50;2.90;;;;;;;;;;5030665;28;20525;-67
2021/06/28 00:32:19;;;;;;;4.40;2.53;;;;;;;;;;5032907;28;20494;-67
2021/06/28 00:34:45;;;;;;;5.47;2.70;;;;;;;;;;5032263;28;20447;-67
2021/06/28 00:37:11;;;;;;;4.63;2.37;;;;;;;;;;5032882;28;20410;-67
2021/06/28 00:39:37;;;;;;;4.30;2.50;;;;;;;;;;5031525;28;20565;-67
2021/06/28 00:42:03;;;;;;;3.23;2.20;;;;;;;;;;5032930;28;20490;-67
2021/06/28 00:44:29;;;;;;;3.30;2.40;;;;;;;;;;5035625;28;20436;-67
2021/06/28 00:46:55;;;;;;;5.67;2.80;;;;;;;;;;5036938;28;20481;-67
2021/06/28 00:49:21;;;;;;;4.10;2.63;;;;;;;;;;5032976;28;20538;-67
2021/06/28 00:51:47;;;;;;;3.10;2.17;;;;;;;;;;5036461;28;20398;-67
2021/06/28 00:54:13;;;;;;;2.67;2.10;;;;;;;;;;5032275;28;20428;-67
2021/06/28 00:56:40;;;;;;;3.40;2.30;;;;;;;;;;5017158;28;20419;-67
2021/06/28 00:59:07;;;;;;;4.17;2.73;;;;;;;;;;5022979;28;21081;-67
2021/06/28 01:01:33;;;;;;;3.87;2.17;;;;;;;;;;5036338;28;20442;-68
2021/06/28 01:03:59;;;;;;;3.33;2.73;;;;;;;;;;5035157;28;20942;-68
2021/06/28 01:06:25;;;;;;;3.53;2.00;;;;;;;;;;5036303;28;20394;-67
2021/06/28 01:08:51;;;;;;;2.23;1.93;;;;;;;;;;5035282;28;20447;-67
2021/06/28 01:11:18;;;;;;;2.80;1.77;;;;;;;;;;5034701;28;20430;-66
2021/06/28 01:13:44;;;;;;;2.60;1.80;;;;;;;;;;5036045;28;20398;-67
2021/06/28 01:16:10;;;;;;;3.17;2.07;;;;;;;;;;5021219;28;20466;-67
2021/06/28 01:18:36;;;;;;;2.70;2.00;;;;;;;;;;5016245;28;20438;-67
2021/06/28 01:21:03;;;;;;;3.10;1.87;;;;;;;;;;5019125;28;20803;-66
2021/06/28 01:23:30;;;;;;;3.23;1.70;;;;;;;;;;5016243;28;20399;-67
2021/06/28 01:25:58;;;;;;;2.40;1.70;;;;;;;;;;5027508;28;20423;-67
2021/06/28 01:28:25;;;;;;;4.27;1.60;;;;;;;;;;5036173;28;20505;-67
2021/06/28 01:30:51;;;;;;;2.73;1.90;;;;;;;;;;5024379;28;20510;-67
2021/06/28 01:33:17;;;;;;;3.50;1.80;;;;;;;;;;5016281;28;20411;-67
2021/06/28 01:35:43;;;;;;;3.10;1.80;;;;;;;;;;5016231;28;20423;-67
2021/06/28 01:38:09;;;;;;;3.33;2.10;;;;;;;;;;5016078;28;20443;-67
2021/06/28 01:40:36;;;;;;;5.90;2.40;;;;;;;;;;5023717;28;20823;-67
2021/06/28 01:43:03;;;;;;;2.97;2.40;;;;;;;;;;5034443;28;20528;-67
2021/06/28 01:45:29;;;;;;;3.20;2.20;;;;;;;;;;5034664;28;20911;-68
2021/06/28 01:47:59;;;;;;;2.80;1.80;;;;;;;;;;5035894;28;20819;-68
2021/06/28 01:50:29;;;;;;;5.13;1.90;;;;;;;;;;5034432;28;20449;-67
2021/06/28 01:52:55;;;;;;;4.40;2.17;;;;;;;;;;5035544;28;20739;-67
2021/06/28 01:55:22;;;;;;;4.10;1.93;;;;;;;;;;5034107;28;20422;-67
2021/06/28 01:57:53;;;;;;;2.70;1.77;;;;;;;;;;5035693;28;20398;-67
2021/06/28 02:00:30;;;;;;;3.33;1.97;;;;;;;;;;5034289;28;20773;-67
2021/06/28 02:03:02;;;;;;;3.07;1.93;;;;;;;;;;5035511;28;20516;-67
2021/06/28 02:05:29;;;;;;;3.80;2.83;;;;;;;;;;5034097;28;20444;-67
2021/06/28 02:07:55;;;;;;;2.77;2.07;;;;;;;;;;5035127;28;20488;-67
2021/06/28 02:10:21;;;;;;;2.83;2.10;;;;;;;;;;5033734;28;20439;-68
2021/06/28 02:12:47;;;;;;;3.10;2.20;;;;;;;;;;5022921;28;20458;-67
2021/06/28 02:15:24;;;;;;;3.27;1.60;;;;;;;;;;5033281;28;20521;-68
2021/06/28 02:17:50;;;;;;;4.00;1.83;;;;;;;;;;5035046;28;20410;-68
2021/06/28 02:20:18;;;;;;;2.23;1.40;;;;;;;;;;5033959;28;20785;-69
2021/06/28 02:22:44;;;;;;;3.97;1.30;;;;;;;;;;5034338;28;20541;-67
2021/06/28 02:25:10;;;;;;;4.00;1.63;;;;;;;;;;5034858;28;20407;-67
2021/06/28 02:27:37;;;;;;;2.30;1.60;;;;;;;;;;5034159;28;20426;-67
2021/06/28 02:30:05;;;;;;;2.30;1.60;;;;;;;;;;5034663;28;20431;-67
2021/06/28 02:32:31;;;;;;;2.70;1.60;;;;;;;;;;5033664;28;20481;-66
2021/06/28 02:34:57;;;;;;;4.07;2.20;;;;;;;;;;5034676;28;20403;-67
2021/06/28 02:37:23;;;;;;;3.60;2.13;;;;;;;;;;5033618;28;20832;-67
2021/06/28 02:39:49;;;;;;;2.10;1.30;;;;;;;;;;5034411;28;20865;-67
2021/06/28 02:42:16;;;;;;;2.67;1.40;;;;;;;;;;5032965;28;20841;-67
2021/06/28 02:44:42;;;;;;;3.47;1.50;;;;;;;;;;5035277;28;20391;-67
2021/06/28 02:47:08;;;;;;;2.60;1.53;;;;;;;;;;5033231;28;20522;-67
2021/06/28 02:49:34;;;;;;;5.93;2.03;;;;;;;;;;5034439;28;20468;-67
2021/06/28 02:52:00;;;;;;;3.47;2.00;;;;;;;;;;5032693;28;20430;-66
2021/06/28 02:54:27;;;;;;;4.57;1.73;;;;;;;;;;5033719;28;20446;-66
2021/06/28 02:56:53;;;;;;;2.03;1.43;;;;;;;;;;5023076;28;20785;-66
2021/06/28 02:59:19;;;;;;;5.10;2.10;;;;;;;;;;5014444;28;20415;-66
2021/06/28 03:01:45;;;;;;;2.67;1.73;;;;;;;;;;5021341;28;20465;-66
2021/06/28 03:04:11;;;;;;;3.70;2.00;;;;;;;;;;5032497;28;20786;-66
2021/06/28 03:06:37;;;;;;;2.23;1.87;;;;;;;;;;5024552;28;20423;-66
2021/06/28 03:09:03;;;;;;;2.93;1.57;;;;;;;;;;5013119;28;20443;-67
2021/06/28 03:11:29;;;;;;;3.77;2.03;;;;;;;;;;5014787;28;20439;-66
2021/06/28 03:13:55;;;;;;;2.43;1.63;;;;;;;;;;5014692;28;20412;-66
2021/06/28 03:16:21;;;;;;;5.93;2.23;;;;;;;;;;5020106;28;20435;-66
2021/06/28 03:18:47;;;;;;;2.63;1.93;;;;;;;;;;5033905;28;20854;-66
2021/06/28 03:21:13;;;;;;;3.30;1.80;;;;;;;;;;5033001;28;20533;-66
2021/06/28 03:23:44;;;;;;;2.43;2.10;;;;;;;;;;5034228;28;20399;-66
2021/06/28 03:26:10;;;;;;;3.13;2.10;;;;;;;;;;5030446;28;20445;-66
2021/06/28 03:28:36;;;;;;;3.03;2.30;;;;;;;;;;5033724;28;21027;-66
2021/06/28 03:31:03;;;;;;;6.80;2.17;;;;;;;;;;5031468;28;20523;-66
2021/06/28 03:33:29;;;;;;;3.80;1.93;;;;;;;;;;5033642;28;20811;-66
2021/06/28 03:35:55;;;;;;;2.77;1.97;;;;;;;;;;5032627;28;20941;-67
2021/06/28 03:38:21;;;;;;;3.33;1.90;;;;;;;;;;5033587;28;20513;-67
2021/06/28 03:40:48;;;;;;;4.17;1.97;;;;;;;;;;5032578;28;20401;-66
2021/06/28 03:43:14;;;;;;;5.57;3.03;;;;;;;;;;5033236;28;20971;-67
2021/06/28 03:45:40;;;;;;;5.00;2.10;;;;;;;;;;5033637;28;20431;-66
2021/06/28 03:48:07;;;;;;;3.50;2.10;;;;;;;;;;5032292;28;20446;-66
2021/06/28 03:50:33;;;;;;;7.23;2.70;;;;;;;;;;5033223;28;20399;-67
2021/06/28 03:52:59;;;;;;;3.07;2.30;;;;;;;;;;5032382;28;20430;-66
2021/06/28 03:55:26;;;;;;;4.17;2.37;;;;;;;;;;5033343;28;20418;-66
2021/06/28 03:57:52;;;;;;;3.43;2.50;;;;;;;;;;5032212;28;20432;-66
2021/06/28 04:00:19;;;;;;;5.20;3.07;;;;;;;;;;5032653;28;20953;-66
2021/06/28 04:02:45;;;;;;;4.07;2.27;;;;;;;;;;5032278;28;20798;-66
2021/06/28 04:05:14;;;;;;;4.10;2.47;;;;;;;;;;5033329;28;20399;-66
2021/06/28 04:07:40;;;;;;;3.70;2.70;;;;;;;;;;5032533;28;20426;-66
2021/06/28 04:10:07;;;;;;;6.30;3.30;;;;;;;;;;5031910;28;20418;-65
2021/06/28 04:12:33;;;;;;;4.20;2.63;;;;;;;;;;5031399;28;20429;-66
2021/06/28 04:14:59;;;;;;;5.50;2.83;;;;;;;;;;5033076;28;20403;-66
2021/06/28 04:17:26;;;;;;;3.77;2.67;;;;;;;;;;5032517;28;20958;-66
2021/06/28 04:19:52;;;;;;;7.90;2.60;;;;;;;;;;5032921;28;20430;-67
2021/06/28 04:22:18;;;;;;;3.47;2.20;;;;;;;;;;5032175;28;20959;-67
2021/06/28 04:24:44;;;;;;;3.43;2.63;;;;;;;;;;5033207;28;20482;-67
2021/06/28 04:27:10;;;;;;;3.00;2.00;;;;;;;;;;5032196;28;20757;-67
2021/06/28 04:29:36;;;;;;;3.70;1.93;;;;;;;;;;5033176;28;20418;-67
2021/06/28 04:32:03;;;;;;;2.50;2.03;;;;;;;;;;5030792;28;20430;-67
2021/06/28 04:34:29;;;;;;;7.27;2.43;;;;;;;;;;5033110;28;20766;-67
2021/06/28 04:36:55;;;;;;;4.50;2.40;;;;;;;;;;5031029;28;20435;-67
2021/06/28 04:39:22;;;;;;;3.27;2.23;;;;;;;;;;5032670;28;20438;-67
2021/06/28 04:41:48;;;;;;;3.30;2.23;;;;;;;;;;5031774;28;20504;-67
2021/06/28 04:44:14;;;;;;;4.40;2.20;;;;;;;;;;5033233;28;20907;-67
2021/06/28 04:46:40;;;;;;;4.03;2.63;;;;;;;;;;5032648;28;20485;-67
2021/06/28 04:49:06;;;;;;;2.87;2.07;;;;;;;;;;5031165;28;20442;-67
2021/06/28 04:51:33;;;;;;;5.40;2.60;;;;;;;;;;5032670;28;20402;-67
2021/06/28 04:53:59;;;;;;;3.37;2.30;;;;;;;;;;5031950;28;20441;-66
2021/06/28 04:56:25;;;;;;;3.57;2.57;;;;;;;;;;5032927;28;20414;-66
2021/06/28 04:58:51;;;;;;;3.93;1.87;;;;;;;;;;5031802;28;20446;-67
2021/06/28 05:01:17;;;;;;;3.30;3.00;;;;;;;;;;5032675;28;20450;-67
2021/06/28 05:03:43;;;;;;;6.30;2.43;;;;;;;;;;5020890;28;20442;-67
2021/06/28 05:06:09;;;;;;;2.80;2.50;;;;;;;;;;5012653;28;20415;-66
2021/06/28 05:08:35;;;;;;;4.53;3.10;;;;;;;;;;5022657;28;20961;-67
2021/06/28 05:11:02;;;;;;;2.80;1.97;;;;;;;;;;5032751;28;20428;-67
2021/06/28 05:13:28;;;;;;;3.67;2.50;;;;;;;;;;5023705;28;20431;-67
2021/06/28 05:15:54;;;;;;;3.17;2.50;;;;;;;;;;5011553;28;20482;-67
2021/06/28 05:18:20;;;;;;;3.70;2.20;;;;;;;;;;5012786;28;20439;-67
2021/06/28 05:20:46;;;;;;;4.87;2.47;;;;;;;;;;5013033;28;20407;-67
2021/06/28 05:23:12;;;;;;;4.57;2.27;;;;;;;;;;5018487;28;20454;-67
2021/06/28 05:25:38;;;;;;;6.73;2.40;;;;;;;;;;5032496;28;20407;-67
2021/06/28 05:28:05;;;;;;;3.67;2.70;;;;;;;;;;5029783;28;20533;-67
2021/06/28 05:30:31;;;;;;;4.87;2.60;;;;;;;;;;5036532;28;20386;-67
2021/06/28 05:32:57;;;;;;;4.53;2.80;;;;;;;;;;5035130;28;20423;-66
2021/06/28 05:35:23;;;;;;;4.97;2.50;;;;;;;;;;5035008;28;20944;-67
2021/06/28 05:37:49;;;;;;;2.97;2.03;;;;;;;;;;5033797;28;20513;-68
2021/06/28 05:40:15;;;;;;;3.43;2.50;;;;;;;;;;5029935;28;20434;-67
2021/06/28 05:42:43;;;;;;;4.50;2.87;;;;;;;;;;5030397;28;20464;-68
2021/06/28 05:45:10;;;;;;;4.47;3.17;;;;;;;;;;5035433;28;20850;-67
2021/06/28 05:47:36;;;;;;;3.13;2.50;;;;;;;;;;5034039;28;20493;-68
2021/06/28 05:50:02;;;;;;;3.50;2.23;;;;;;;;;;5035547;28;20482;-67
2021/06/28 05:52:28;;;;;;;4.00;2.53;;;;;;;;;;5028361;28;20528;-68
2021/06/28 05:54:54;;;;;;;5.80;2.73;;;;;;;;;;5034086;28;20911;-68
2021/06/28 05:57:24;;;;;;;3.40;2.30;;;;;;;;;;5035228;28;20461;-67
2021/06/28 05:59:50;;;;;;;3.93;2.67;;;;;;;;;;5033274;28;20461;-68
2021/06/28 06:02:18;;;;;;;3.00;2.60;;;;;;;;;;5035141;28;20958;-67
2021/06/28 06:04:44;;;;;;;2.93;2.23;;;;;;;;;;5034342;28;20423;-67
2021/06/28 06:07:10;;;;;;;4.30;2.53;;;;;;;;;;5035372;28;20480;-67
2021/06/28 06:09:37;;;;;;;4.00;2.43;;;;;;;;;;5034018;28;20443;-67
2021/06/28 06:12:03;;;;;;;3.23;2.60;;;;;;;;;;5034440;28;20427;-68
2021/06/28 06:14:29;;;;;;;4.10;2.87;;;;;;;;;;5029100;28;20430;-66
2021/06/28 06:16:55;;;;;;;4.07;3.03;;;;;;;;;;5035076;28;20414;-66
2021/06/28 06:19:21;;;;;;;6.37;3.40;;;;;;;;;;5033972;28;20546;-67
2021/06/28 06:21:47;;;;;;;4.20;3.13;;;;;;;;;;5029919;28;20515;-69
2021/06/28 06:24:13;;;;;;;4.83;3.53;;;;;;;;;;5031131;28;20788;-68
2021/06/28 06:26:40;;;;;;;3.70;3.03;;;;;;;;;;5033096;28;20502;-67
2021/06/28 06:29:06;;;;;;;4.00;3.50;;;;;;;;;;5028661;28;20866;-68
2021/06/28 06:31:32;;;;;;;2.83;2.40;;;;;;;;;;5032854;28;20896;-67
2021/06/28 06:33:58;;;;;;;3.60;3.00;;;;;;;;;;5033410;28;20442;-67
2021/06/28 06:36:24;;;;;;;4.30;3.23;;;;;;;;;;5035021;28;20407;-67
2021/06/28 06:38:50;;;;;;;4.10;3.20;;;;;;;;;;5028877;28;20532;-69
2021/06/28 06:41:16;;;;;;;3.50;3.20;;;;;;;;;;5031737;28;20461;-69
2021/06/28 06:43:42;;;;;;;5.13;3.17;;;;;;;;;;5033527;28;20504;-66
2021/06/28 06:46:09;;;;;;;5.17;3.50;;;;;;;;;;5033974;28;20934;-67
2021/06/28 06:48:35;;;;;;;3.93;2.83;;;;;;;;;;5032626;28;20450;-67
2021/06/28 06:51:01;;;;;;;8.90;3.83;;;;;;;;;;5032351;28;20468;-69
2021/06/28 06:53:27;;;;;;;4.83;3.50;;;;;;;;;;5032125;28;20746;-69
2021/06/28 06:55:53;;;;;;;4.20;2.83;;;;;;;;;;5033425;28;20409;-70
2021/06/28 06:58:19;;;;;;;4.40;2.83;;;;;;;;;;5030722;28;20530;-71
2021/06/28 07:00:45;;;;;;;4.40;2.97;;;;;;;;;;5020829;28;20457;-67
2021/06/28 07:03:11;;;;;;;3.80;3.23;;;;;;;;;;5026797;28;20473;-66
2021/06/28 07:05:37;;;;;;;3.87;2.80;;;;;;;;;;5028245;28;20932;-68
2021/06/28 07:08:04;;;;;;;4.03;2.93;;;;;;;;;;5027755;28;20531;-69
2021/06/28 07:10:30;;;;;;;6.90;2.93;;;;;;;;;;5026718;28;20865;-69
2021/06/28 07:12:56;;;;;;;3.87;2.97;;;;;;;;;;5026382;28;20549;-69
2021/06/28 07:15:22;;;;;;;3.87;2.57;;;;;;;;;;5026224;28;20922;-68
2021/06/28 07:17:49;;;;;;;10.17;3.67;;;;;;;;;;5032138;28;20414;-67
2021/06/28 07:20:17;;;;;;;4.40;2.90;;;;;;;;;;5031264;28;20446;-69
2021/06/28 07:22:43;;;;;;;3.83;2.80;;;;;;;;;;5032569;28;20450;-69
2021/06/28 07:25:11;;;;;;;4.70;3.30;;;;;;;;;;5030600;28;20504;-72
2021/06/28 07:27:37;;;;;;;3.97;2.70;;;;;;;;;;5033212;28;20418;-68
2021/06/28 07:30:06;;;;;;;2.67;2.40;;;;;;;;;;5028590;28;20449;-66
2021/06/28 07:32:32;;;;;;;4.47;3.00;;;;;;;;;;5028780;28;20496;-74
2021/06/28 07:34:58;;;;;;;3.37;2.63;;;;;;;;;;5008516;28;20522;-69
2021/06/28 07:37:24;;;;;;;5.53;2.70;;;;;;;;;;5031870;28;20497;-70
2021/06/28 07:39:51;;;;;;;3.30;2.60;;;;;;;;;;5027652;28;20473;-69
2021/06/28 07:42:17;;;;;;;3.93;2.97;;;;;;;;;;5030790;28;20473;-70
2021/06/28 07:44:43;;;;;;;4.47;2.87;;;;;;;;;;5028558;28;20923;-70
2021/06/28 07:47:09;;;;;;;4.57;3.23;;;;;;;;;;5032232;28;20891;-69
2021/06/28 07:49:35;;;;;;;6.63;2.90;;;;;;;;;;5030290;28;20504;-69
2021/06/28 07:52:01;;;;;;;5.43;3.73;;;;;;;;;;5029800;28;20430;-71
2021/06/28 07:54:29;;;;;;;3.33;2.53;;;;;;;;;;5032024;28;20519;-70
2021/06/28 07:56:55;;;;;;;4.03;2.90;;;;;;;;;;5027497;28;20931;-67
2021/06/28 07:59:21;;;;;;;4.10;2.50;;;;;;;;;;5021791;28;20457;-70
2021/06/28 08:01:47;;;;;;;3.90;2.80;;;;;;;;;;5029155;28;20565;-68
2021/06/28 08:04:13;;;;;;;4.03;2.30;;;;;;;;;;5029151;28;20939;-68
2021/06/28 08:06:39;;;;;;;3.63;2.77;;;;;;;;;;5031013;28;20426;-69
2021/06/28 08:09:05;;;;;;;4.60;3.87;;;;;;;;;;5027099;28;20450;-66
2021/06/28 08:11:31;;;;;;;3.57;2.20;;;;;;;;;;5013262;28;20426;-66
2021/06/28 08:13:58;;;;;;;3.73;2.30;;;;;;;;;;5023711;28;20965;-66
2021/06/28 08:16:24;;;;;;;6.07;2.50;;;;;;;;;;5031410;28;20421;-66
2021/06/28 08:18:52;;;;;;;3.13;2.43;;;;;;;;;;5030539;28;20454;-67
2021/06/28 08:21:20;;;;;;;2.63;2.03;;;;;;;;;;5014539;28;20418;-69
2021/06/28 08:23:46;;;;;;;5.90;2.40;;;;;;;;;;5030128;28;20489;-66
2021/06/28 08:26:13;;;;;;;3.20;2.90;;;;;;;;;;5031582;28;20807;-68
2021/06/28 08:28:39;;;;;;;6.23;2.53;;;;;;;;;;5041727;28;21510;-69
2021/06/28 08:31:05;;;;;;;2.80;2.10;;;;;;;;;;5032180;28;20419;-65
2021/06/28 08:33:32;;;;;;;10.90;2.50;;;;;;;;;;5029777;28;20480;-68
2021/06/28 08:35:59;;;;;;;2.83;2.03;;;;;;;;;;5029607;28;20426;-67
2021/06/28 08:38:25;;;;;;;3.13;2.00;;;;;;;;;;5028992;28;20897;-67
2021/06/28 08:40:51;;;;;;;7.20;2.53;;;;;;;;;;5030035;28;20420;-72
2021/06/28 08:43:17;;;;;;;4.30;2.67;;;;;;;;;;5030785;28;20449;-69
2021/06/28 08:45:44;;;;;;;3.37;2.33;;;;;;;;;;5030979;28;20459;-74
2021/06/28 08:48:10;;;;;;;3.50;2.30;;;;;;;;;;5028255;28;20427;-72
2021/06/28 08:50:37;;;;;;;3.33;2.20;;;;;;;;;;5029805;28;20466;-68
2021/06/28 08:53:04;;;;;;;2.60;2.07;;;;;;;;;;5032576;28;20466;-68
2021/06/28 08:55:30;;;;;;;4.20;2.37;;;;;;;;;;5022342;28;20422;-68
2021/06/28 08:57:56;;;;;;;2.87;2.37;;;;;;;;;;5029934;28;20465;-68
2021/06/28 09:00:22;;;;;;;3.53;2.67;;;;;;;;;;5023351;28;20517;-71
2021/06/28 09:02:55;;;;;;;6.23;2.50;;;;;;;;;;5029196;28;20504;-69
2021/06/28 09:05:22;;;;;;;3.60;2.77;;;;;;;;;;5024007;28;20427;-67
2021/06/28 09:07:48;;;;;;;3.83;1.83;;;;;;;;;;5035048;28;20422;-70
2021/06/28 09:10:33;;;;;;;3.33;2.07;;;;;;;;;;5034164;28;20422;-69
2021/06/28 09:12:59;;;;;;;3.97;2.03;;;;;;;;;;5029856;28;20472;-71
2021/06/28 09:15:38;;;;;;;7.23;2.10;;;;;;;;;;5028716;28;20509;-70
2021/06/28 09:18:25;;;;;;;6.03;2.10;;;;;;;;;;5033446;28;20435;-73
2021/06/28 09:20:52;;;;;;;3.00;2.20;;;;;;;;;;5030180;28;20561;-72
2021/06/28 09:23:18;;;;;;;2.50;2.20;;;;;;;;;;5031747;28;21041;-69
2021/06/28 09:25:44;;;;;;;2.03;1.57;;;;;;;;;;5034123;28;20426;-67
2021/06/28 09:28:10;;;;;;;6.30;3.77;;;;;;;;;;5031367;28;20442;-69
2021/06/28 09:30:45;;;;;;;2.53;1.77;;;;;;;;;;5034635;28;20992;-67
2021/06/28 09:33:11;;;;;;;3.00;1.90;;;;;;;;;;5031988;28;20504;-69
2021/06/28 09:35:38;;;;;;;2.90;2.17;;;;;;;;;;5030932;28;20442;-69
2021/06/28 09:38:09;;;;;;;5.10;2.10;;;;;;;;;;5032839;28;20827;-68
2021/06/28 09:40:36;;;;;;;4.30;2.70;;;;;;;;;;5033530;28;20923;-68
2021/06/28 09:43:25;;;;;;;2.43;1.73;;;;;;;;;;5032743;28;20457;-66
2021/06/28 09:45:55;;;;;;;3.47;2.57;;;;;;;;;;5028706;28;20430;-68
2021/06/28 09:48:31;;;;;;;3.10;2.03;;;;;;;;;;5041220;28;20434;-66
2021/06/28 09:51:16;;;;;;;3.67;2.40;;;;;;;;;;5034750;28;20430;-66
2021/06/28 09:53:42;;;;;;;2.07;1.67;;;;;;;;;;5035160;28;20414;-65
2021/06/28 09:56:27;;;;;;;4.43;2.63;;;;;;;;;;5033874;28;20426;-68
2021/06/28 09:58:54;;;;;;;3.13;2.27;;;;;;;;;;5017061;28;20488;-69
2021/06/28 10:01:24;;;;;;;3.97;2.00;;;;;;;;;;5028803;28;20499;-69
2021/06/28 10:03:53;;;;;;;5.10;1.90;;;;;;;;;;5026736;28;20958;-71
2021/06/28 10:08:46;;;;;;;3.13;1.57;;;;;;;;;;5034571;28;20514;-70
2021/06/28 10:11:12;;;;;;;3.27;1.63;;;;;;;;;;5032482;28;20423;-69
2021/06/28 10:13:38;;;;;;;3.80;2.40;;;;;;;;;;5031895;28;20758;-66
2021/06/28 10:16:04;;;;;;;2.70;1.80;;;;;;;;;;5031515;28;20419;-62
2021/06/28 10:18:31;;;;;;;4.70;1.60;;;;;;;;;;5028419;28;20958;-66
2021/06/28 10:20:57;;;;;;;4.50;1.77;;;;;;;;;;5036440;28;20449;-66
2021/06/28 10:23:23;;;;;;;2.07;1.43;;;;;;;;;;5030826;28;20990;-66
2021/06/28 10:25:49;;;;;;;4.73;2.07;;;;;;;;;;5032028;28;20536;-66
2021/06/28 10:28:15;;;;;;;4.27;2.00;;;;;;;;;;5017323;28;20785;-66
2021/06/28 10:30:41;;;;;;;2.60;1.67;;;;;;;;;;5032921;28;20833;-66
2021/06/28 10:33:09;;;;;;;2.20;1.60;;;;;;;;;;5032154;28;20415;-65
2021/06/28 10:35:37;;;;;;;2.27;1.53;;;;;;;;;;5030568;28;20442;-66
2021/06/28 10:38:05;;;;;;;4.03;1.63;;;;;;;;;;5020130;28;20469;-68
2021/06/28 10:40:44;;;;;;;2.07;1.43;;;;;;;;;;5028967;28;20418;-65
2021/06/28 10:43:30;;;;;;;3.30;1.80;;;;;;;;;;5030660;28;20500;-65
2021/06/28 10:45:56;;;;;;;3.43;2.10;;;;;;;;;;5030407;28;20926;-66
2021/06/28 10:48:23;;;;;;;3.13;1.80;;;;;;;;;;5020889;28;20450;-65
2021/06/28 10:50:54;;;;;;;2.13;1.50;;;;;;;;;;5030967;28;20406;-64
2021/06/28 10:53:29;;;;;;;2.13;1.60;;;;;;;;;;5027983;28;20477;-65
2021/06/28 10:55:55;;;;;;;1.93;1.40;;;;;;;;;;5030693;28;20426;-64
2021/06/28 10:58:26;;;;;;;5.63;1.70;;;;;;;;;;5033321;28;20794;-65
2021/06/28 11:00:53;;;;;;;2.33;1.20;;;;;;;;;;5031602;28;20422;-68
2021/06/28 11:03:34;;;;;;;2.37;1.43;;;;;;;;;;5040175;28;20459;-67
2021/06/28 11:06:14;;;;;;;2.00;1.33;;;;;;;;;;5030295;28;20501;-68
2021/06/28 11:09:12;;;;;;;2.83;1.40;;;;;;;;;;5034031;28;20418;-68
2021/06/28 11:11:45;;;;;;;4.10;1.63;;;;;;;;;;4989933;28;20446;-67
2021/06/28 11:14:31;;;;;;;3.80;1.37;;;;;;;;;;5018280;28;20495;-67
2021/06/28 11:16:59;;;;;;;2.00;1.23;;;;;;;;;;5003136;28;20525;-67
2021/06/28 11:19:48;;;;;;;1.90;1.00;;;;;;;;;;5016181;28;20841;-67
2021/06/28 11:22:27;;;;;;;2.37;1.37;;;;;;;;;;5022481;28;20530;-67
2021/06/28 11:24:59;;;;;;;2.83;1.47;;;;;;;;;;5032428;28;20951;-67
2021/06/28 11:27:25;;;;;;;2.23;1.40;;;;;;;;;;5032682;28;20402;-67
2021/06/28 11:29:53;;;;;;;1.70;1.10;;;;;;;;;;5032669;28;20423;-67
2021/06/28 11:32:30;;;;;;;2.00;1.30;;;;;;;;;;5033455;28;20477;-67
2021/06/28 11:34:57;;;;;;;2.47;1.67;;;;;;;;;;5032333;28;20395;-67
2021/06/28 11:37:23;;;;;;;4.30;1.30;;;;;;;;;;5031646;28;20789;-68
2021/06/28 11:39:56;;;;;;;3.20;1.20;;;;;;;;;;5031559;28;20470;-68
2021/06/28 11:42:25;;;;;;;1.90;1.30;;;;;;;;;;5028195;28;20469;-69
2021/06/28 11:44:52;;;;;;;3.40;1.30;;;;;;;;;;5025966;28;20434;-70
2021/06/28 11:47:18;;;;;;;1.90;1.23;;;;;;;;;;5025705;28;20558;-67
2021/06/28 11:49:45;;;;;;;2.30;1.60;;;;;;;;;;5031495;28;20454;-68
2021/06/28 11:52:15;;;;;;;4.10;1.40;;;;;;;;;;5030378;28;20907;-69
2021/06/28 11:54:41;;;;;;;1.97;1.17;;;;;;;;;;5025331;28;20438;-68
2021/06/28 11:57:08;;;;;;;2.97;1.40;;;;;;;;;;5023307;28;20423;-64
2021/06/28 11:59:39;;;;;;;2.20;1.23;;;;;;;;;;5030230;28;20450;-68
2021/06/28 12:02:06;;;;;;;2.10;1.30;;;;;;;;;;5031507;28;20825;-70
2021/06/28 12:04:34;;;;;;;4.63;1.47;;;;;;;;;;5032501;28;20418;-71
2021/06/28 12:07:01;;;;;;;3.43;1.30;;;;;;;;;;5030676;28;20497;-71
2021/06/28 12:09:28;;;;;;;2.93;1.40;;;;;;;;;;5021192;28;20474;-70
2021/06/28 12:11:54;;;;;;;2.10;1.40;;;;;;;;;;5031317;28;20422;-70
2021/06/28 12:14:34;;;;;;;3.80;1.70;;;;;;;;;;5026281;28;20438;-71
2021/06/28 12:17:01;;;;;;;2.17;1.50;;;;;;;;;;5023625;28;20435;-68
2021/06/28 12:19:28;;;;;;;2.63;1.57;;;;;;;;;;5031105;28;20473;-68
2021/06/28 12:21:54;;;;;;;2.63;1.63;;;;;;;;;;5027678;28;20462;-65
2021/06/28 12:24:21;;;;;;;3.50;1.73;;;;;;;;;;5017669;28;20430;-67
2021/06/28 12:27:02;;;;;;;3.33;1.20;;;;;;;;;;5026513;28;20423;-68
2021/06/28 12:29:30;;;;;;;2.57;1.20;;;;;;;;;;5029178;28;20848;-66
2021/06/28 12:32:00;;;;;;;2.30;1.40;;;;;;;;;;5028980;28;20565;-66
2021/06/28 12:34:26;;;;;;;3.20;1.30;;;;;;;;;;5030992;28;20427;-66
2021/06/28 12:36:52;;;;;;;2.90;1.80;;;;;;;;;;5028944;28;20533;-68
2021/06/28 12:39:22;;;;;;;2.70;1.50;;;;;;;;;;5032882;28;21017;-68
2021/06/28 12:41:48;;;;;;;1.93;1.33;;;;;;;;;;5033310;28;20514;-70
2021/06/28 12:44:14;;;;;;;2.00;1.47;;;;;;;;;;5032031;28;20438;-70
2021/06/28 12:46:40;;;;;;;2.23;1.33;;;;;;;;;;5034042;28;20418;-69
2021/06/28 12:49:07;;;;;;;3.00;1.70;;;;;;;;;;5035871;28;20496;-66
2021/06/28 12:51:33;;;;;;;2.73;1.40;;;;;;;;;;5030883;28;20445;-68
2021/06/28 12:53:59;;;;;;;2.40;1.30;;;;;;;;;;5041715;28;20416;-66
2021/06/28 12:56:30;;;;;;;3.03;1.57;;;;;;;;;;5035064;28;21035;-66
2021/06/28 12:59:02;;;;;;;2.30;1.43;;;;;;;;;;5030240;28;21235;-69
2021/06/28 13:01:31;;;;;;;2.30;1.47;;;;;;;;;;5035055;28;20444;-67
2021/06/28 13:04:16;;;;;;;2.30;1.60;;;;;;;;;;5031499;28;20449;-69
2021/06/28 13:06:42;;;;;;;2.83;2.53;;;;;;;;;;5031395;28;20423;-65
2021/06/28 13:09:15;;;;;;;2.40;1.57;;;;;;;;;;5039457;28;20446;-65
2021/06/28 13:11:47;;;;;;;2.40;1.50;;;;;;;;;;5026439;28;20441;-66
2021/06/28 13:14:22;;;;;;;2.40;1.40;;;;;;;;;;5030969;28;20427;-67
2021/06/28 13:19:16;;;;;;;2.40;1.70;;;;;;;;;;5036297;28;20442;-66
2021/06/28 13:21:52;;;;;;;2.97;1.57;;;;;;;;;;5034778;28;20813;-66
2021/06/28 13:24:22;;;;;;;4.20;1.70;;;;;;;;;;5033960;28;20442;-69
2021/06/28 13:26:49;;;;;;;2.30;1.40;;;;;;;;;;5032506;28;20427;-69
2021/06/28 13:29:17;;;;;;;2.57;2.00;;;;;;;;;;5031686;28;20441;-70
2021/06/28 13:31:51;;;;;;;2.23;1.70;;;;;;;;;;5032815;28;20546;-69
2021/06/28 13:34:18;;;;;;;4.70;1.90;;;;;;;;;;5034208;28;20457;-65
2021/06/28 13:37:00;;;;;;;2.20;1.63;;;;;;;;;;5029825;28;20468;-68
2021/06/28 13:39:36;;;;;;;3.60;1.80;;;;;;;;;;5031938;28;20531;-67
2021/06/28 13:42:03;;;;;;;4.07;1.67;;;;;;;;;;5030353;28;21004;-68
2021/06/28 13:44:29;;;;;;;5.13;2.07;;;;;;;;;;5036701;28;20483;-68
2021/06/28 13:46:55;;;;;;;1.80;1.37;;;;;;;;;;5033853;28;20461;-67
2021/06/28 13:49:27;;;;;;;2.53;1.30;;;;;;;;;;5037493;28;20430;-68
2021/06/28 13:51:57;;;;;;;2.00;1.50;;;;;;;;;;5014046;28;20425;-68
2021/06/28 13:54:25;;;;;;;3.70;1.40;;;;;;;;;;5029620;28;20429;-67
2021/06/28 13:56:51;;;;;;;3.13;1.60;;;;;;;;;;5029802;28;20477;-68
2021/06/28 13:59:17;;;;;;;2.73;1.30;;;;;;;;;;5030624;28;20454;-69
2021/06/28 14:01:43;;;;;;;2.97;1.60;;;;;;;;;;5033138;28;20533;-68
2021/06/28 14:04:10;;;;;;;2.20;1.57;;;;;;;;;;5025390;28;20421;-68
2021/06/28 14:06:36;;;;;;;5.60;1.70;;;;;;;;;;5027725;28;21592;-68
2021/06/28 14:09:02;;;;;;;3.77;1.33;;;;;;;;;;5034100;28;20498;-68
2021/06/28 14:11:28;;;;;;;4.13;1.63;;;;;;;;;;5031522;28;20419;-67
2021/06/28 14:13:55;;;;;;;4.33;1.90;;;;;;;;;;5035462;28;20418;-64
2021/06/28 14:16:21;;;;;;;2.33;1.67;;;;;;;;;;5023917;28;20417;-68
2021/06/28 14:18:47;;;;;;;2.90;1.50;;;;;;;;;;5031746;28;20861;-66
2021/06/28 14:21:13;;;;;;;3.37;1.17;;;;;;;;;;5035195;28;20969;-63
2021/06/28 14:23:39;;;;;;;3.73;1.27;;;;;;;;;;5028672;28;20525;-67
2021/06/28 14:26:05;;;;;;;2.80;2.00;;;;;;;;;;5036040;28;20419;-65
2021/06/28 14:28:31;;;;;;;2.50;1.43;;;;;;;;;;5032364;28;20479;-69
2021/06/28 14:30:58;;;;;;;2.00;1.30;;;;;;;;;;5032939;28;20493;-69
2021/06/28 14:33:24;;;;;;;4.43;1.57;;;;;;;;;;5031808;28;21038;-67
2021/06/28 14:35:52;;;;;;;2.70;1.30;;;;;;;;;;5029812;28;20427;-66
2021/06/28 14:38:18;;;;;;;1.80;1.30;;;;;;;;;;5032306;28;20465;-67
2021/06/28 14:40:46;;;;;;;3.30;1.33;;;;;;;;;;5027304;28;20434;-67
2021/06/28 14:43:12;;;;;;;3.63;1.43;;;;;;;;;;5027535;28;20511;-67
2021/06/28 14:45:38;;;;;;;2.57;1.47;;;;;;;;;;5030557;28;20430;-67
2021/06/28 14:48:08;;;;;;;2.77;1.60;;;;;;;;;;5031135;28;20454;-67
2021/06/28 14:50:34;;;;;;;3.23;1.57;;;;;;;;;;5031986;28;20457;-68